Time;durP1;ratioP1;P1;durP2;ratioP2;P2;SDS_P1;SDS_P2;PMS_P1;PMS_P2;Temp;Humidity;BMP_temperature;BMP_pressure;BME280_temperature;BME280_humidity;BME280_pressure;Samples;Min_cycle;Max_cycle;Signal;HPM_P1;HPM_P2
2023/06/11 00:02:24;;;;;;;9.60;8.10;;;;;;;-128.00;-1.00;-1.00;102581;1259;1004560;-80
2023/06/11 00:04:50;;;;;;;11.40;8.80;;;;;;;-128.00;-1.00;-1.00;102526;1260;1005941;-83
2023/06/11 00:07:17;;;;;;;9.60;8.60;;;;;;;-128.00;-1.00;-1.00;102510;1264;1003686;-80
2023/06/11 00:09:43;;;;;;;10.90;8.10;;;;;;;-128.00;-1.00;-1.00;102475;1259;1004357;-82
2023/06/11 00:12:10;;;;;;;8.90;7.60;;;;;;;-128.00;-1.00;-1.00;102523;1259;1004677;-80
2023/06/11 00:14:36;;;;;;;11.60;8.20;;;;;;;-128.00;-1.00;-1.00;102413;1260;1006915;-83
2023/06/11 00:17:03;;;;;;;8.90;7.70;;;;;;;-128.00;-1.00;-1.00;102496;1265;1005201;-79
2023/06/11 00:19:30;;;;;;;10.00;8.30;;;;;;;-128.00;-1.00;-1.00;102565;1259;1004510;-82
2023/06/11 00:21:58;;;;;;;9.10;7.60;;;;;;;-128.00;-1.00;-1.00;102540;1260;1004280;-82
2023/06/11 00:24:25;;;;;;;9.30;8.40;;;;;;;-128.00;-1.00;-1.00;102552;1259;1004125;-80
2023/06/11 00:26:51;;;;;;;9.60;7.90;;;;;;;-128.00;-1.00;-1.00;102572;1259;1004796;-82
2023/06/11 00:29:18;;;;;;;10.90;7.80;;;;;;;-128.00;-1.00;-1.00;102586;1260;1004650;-80
2023/06/11 00:31:44;;;;;;;8.90;8.00;;;;;;;-128.00;-1.00;-1.00;102585;1262;1004472;-80
2023/06/11 00:34:11;;;;;;;8.20;7.40;;;;;;;-128.00;-1.00;-1.00;102644;1259;1004467;-79
2023/06/11 00:36:40;;;;;;;12.00;7.80;;;;;;;-128.00;-1.00;-1.00;102686;1262;1004039;-82
2023/06/11 00:39:06;;;;;;;10.10;7.80;;;;;;;-128.00;-1.00;-1.00;102634;1259;1065573;-80
2023/06/11 00:41:34;;;;;;;8.80;7.90;;;;;;;-128.00;-1.00;-1.00;102651;1263;1003817;-81
2023/06/11 00:44:02;;;;;;;10.80;8.80;;;;;;;-128.00;-1.00;-1.00;102632;1261;1004485;-81
2023/06/11 00:46:31;;;;;;;9.60;8.60;;;;;;;-128.00;-1.00;-1.00;105037;1260;1046398;-80
2023/06/11 00:48:58;;;;;;;10.70;8.80;;;;;;;-128.00;-1.00;-1.00;102558;1260;1005139;-83
2023/06/11 00:51:25;;;;;;;11.40;8.10;;;;;;;-128.00;-1.00;-1.00;102546;1265;1004373;-83
2023/06/11 00:53:52;;;;;;;11.20;8.50;;;;;;;-128.00;-1.00;-1.00;102474;1260;1004701;-80
2023/06/11 00:56:19;;;;;;;11.50;8.80;;;;;;;-128.00;-1.00;-1.00;102540;1259;1004479;-83
2023/06/11 00:58:47;;;;;;;8.70;7.20;;;;;;;-128.00;-1.00;-1.00;102577;1264;1005057;-83
2023/06/11 01:01:21;;;;;;;13.10;9.90;;;;;;;-128.00;-1.00;-1.00;102624;1264;1005154;-81
2023/06/11 01:03:47;;;;;;;11.10;8.00;;;;;;;-128.00;-1.00;-1.00;103044;1260;1062486;-82
2023/06/11 01:06:17;;;;;;;11.10;9.10;;;;;;;-128.00;-1.00;-1.00;102428;1265;1004547;-81
2023/06/11 01:08:45;;;;;;;11.80;9.30;;;;;;;-128.00;-1.00;-1.00;102520;1265;1058983;-79
2023/06/11 01:11:21;;;;;;;9.60;7.80;;;;;;;-128.00;-1.00;-1.00;102548;1263;1005220;-79
2023/06/11 01:13:48;;;;;;;11.40;8.90;;;;;;;-128.00;-1.00;-1.00;102572;1263;1048804;-79
2023/06/11 01:16:16;;;;;;;12.30;9.40;;;;;;;-128.00;-1.00;-1.00;102526;1263;1004804;-80
2023/06/11 01:18:53;;;;;;;10.50;8.90;;;;;;;-128.00;-1.00;-1.00;102707;1260;1003934;-81
2023/06/11 01:21:21;;;;;;;9.60;8.60;;;;;;;-128.00;-1.00;-1.00;103051;1260;1059885;-79
2023/06/11 01:24:07;;;;;;;11.40;9.00;;;;;;;-128.00;-1.00;-1.00;102522;1259;1004757;-80
2023/06/11 01:26:48;;;;;;;12.80;7.90;;;;;;;-128.00;-1.00;-1.00;102580;1263;1049244;-79
2023/06/11 01:29:15;;;;;;;9.70;7.90;;;;;;;-128.00;-1.00;-1.00;102592;1263;1065396;-81
2023/06/11 01:31:41;;;;;;;11.70;8.80;;;;;;;-128.00;-1.00;-1.00;102534;1259;1004939;-79
2023/06/11 01:34:10;;;;;;;10.70;9.50;;;;;;;-128.00;-1.00;-1.00;102506;1263;1005106;-81
2023/06/11 01:36:37;;;;;;;11.10;8.10;;;;;;;-128.00;-1.00;-1.00;102534;1260;1046631;-80
2023/06/11 01:39:04;;;;;;;10.00;8.20;;;;;;;-128.00;-1.00;-1.00;102503;1263;1005578;-79
2023/06/11 01:41:30;;;;;;;10.20;8.00;;;;;;;-128.00;-1.00;-1.00;102543;1260;1003843;-79
2023/06/11 01:43:57;;;;;;;13.60;8.80;;;;;;;-128.00;-1.00;-1.00;104385;1259;1005025;-79
2023/06/11 01:46:23;;;;;;;11.10;8.30;;;;;;;-128.00;-1.00;-1.00;105165;1259;1003991;-80
2023/06/11 01:48:50;;;;;;;8.90;8.00;;;;;;;-128.00;-1.00;-1.00;104448;1263;1003991;-79
2023/06/11 01:51:16;;;;;;;13.40;8.70;;;;;;;-128.00;-1.00;-1.00;102556;1263;1004553;-79
2023/06/11 01:53:43;;;;;;;10.40;7.60;;;;;;;-128.00;-1.00;-1.00;102574;1263;1006290;-80
2023/06/11 01:56:09;;;;;;;9.50;7.10;;;;;;;-128.00;-1.00;-1.00;102541;1263;1003727;-79
2023/06/11 01:58:37;;;;;;;8.70;7.50;;;;;;;-128.00;-1.00;-1.00;102533;1260;1004000;-79
2023/06/11 02:01:03;;;;;;;7.40;6.60;;;;;;;-128.00;-1.00;-1.00;102511;1264;1005146;-79
2023/06/11 02:03:30;;;;;;;10.00;8.70;;;;;;;-128.00;-1.00;-1.00;102568;1263;1003922;-81
2023/06/11 02:05:56;;;;;;;9.20;8.20;;;;;;;-128.00;-1.00;-1.00;102542;1260;1005264;-81
2023/06/11 02:08:23;;;;;;;9.60;8.60;;;;;;;-128.00;-1.00;-1.00;102577;1260;1004611;-80
2023/06/11 02:10:49;;;;;;;11.40;8.60;;;;;;;-128.00;-1.00;-1.00;102070;1264;1005094;-81
2023/06/11 02:13:15;;;;;;;15.10;8.90;;;;;;;-128.00;-1.00;-1.00;102034;1260;1004711;-80
2023/06/11 02:15:42;;;;;;;10.30;8.40;;;;;;;-128.00;-1.00;-1.00;102087;1260;1005841;-79
2023/06/11 02:18:08;;;;;;;13.50;10.00;;;;;;;-128.00;-1.00;-1.00;102555;1261;1004571;-81
2023/06/11 02:20:35;;;;;;;11.30;10.00;;;;;;;-128.00;-1.00;-1.00;102069;1264;1005275;-78
2023/06/11 02:23:03;;;;;;;10.50;9.40;;;;;;;-128.00;-1.00;-1.00;102554;1264;1004995;-80
2023/06/11 02:25:30;;;;;;;11.90;9.40;;;;;;;-128.00;-1.00;-1.00;102521;1265;1003625;-79
2023/06/11 02:27:56;;;;;;;11.00;9.40;;;;;;;-128.00;-1.00;-1.00;104853;1259;1004165;-81
2023/06/11 02:30:23;;;;;;;12.60;9.30;;;;;;;-128.00;-1.00;-1.00;105223;1260;1004625;-79
2023/06/11 02:32:49;;;;;;;11.30;10.10;;;;;;;-128.00;-1.00;-1.00;105189;1260;1004500;-81
2023/06/11 02:35:15;;;;;;;11.10;9.50;;;;;;;-128.00;-1.00;-1.00;105160;1261;1003220;-80
2023/06/11 02:37:42;;;;;;;16.10;9.90;;;;;;;-128.00;-1.00;-1.00;105182;1261;1004103;-79
2023/06/11 02:40:09;;;;;;;11.60;8.70;;;;;;;-128.00;-1.00;-1.00;104173;1259;1003958;-81
2023/06/11 02:42:35;;;;;;;10.80;9.60;;;;;;;-128.00;-1.00;-1.00;102545;1263;1004416;-79
2023/06/11 02:45:02;;;;;;;12.80;10.10;;;;;;;-128.00;-1.00;-1.00;102558;1261;1004248;-81
2023/06/11 02:47:28;;;;;;;11.30;9.50;;;;;;;-128.00;-1.00;-1.00;101968;1265;1004588;-81
2023/06/11 02:49:55;;;;;;;17.80;10.80;;;;;;;-128.00;-1.00;-1.00;101964;1268;1003615;-81
2023/06/11 02:52:21;;;;;;;13.60;10.60;;;;;;;-128.00;-1.00;-1.00;101991;1263;1004143;-81
2023/06/11 02:54:48;;;;;;;17.00;12.00;;;;;;;-128.00;-1.00;-1.00;102118;1259;1004174;-79
2023/06/11 02:57:15;;;;;;;15.00;11.80;;;;;;;-128.00;-1.00;-1.00;102541;1260;1004603;-80
2023/06/11 02:59:41;;;;;;;17.00;13.10;;;;;;;-128.00;-1.00;-1.00;102497;1262;1004770;-79
2023/06/11 03:02:07;;;;;;;14.60;11.70;;;;;;;-128.00;-1.00;-1.00;104440;1260;1004120;-81
2023/06/11 03:04:34;;;;;;;15.80;13.70;;;;;;;-128.00;-1.00;-1.00;102630;1261;1005249;-79
2023/06/11 03:07:00;;;;;;;19.50;13.60;;;;;;;-128.00;-1.00;-1.00;102578;1260;1004534;-82
2023/06/11 03:09:27;;;;;;;16.60;13.50;;;;;;;-128.00;-1.00;-1.00;102416;1263;1006545;-81
2023/06/11 03:11:53;;;;;;;16.60;13.40;;;;;;;-128.00;-1.00;-1.00;102580;1260;1004085;-79
2023/06/11 03:14:24;;;;;;;16.60;14.10;;;;;;;-128.00;-1.00;-1.00;102541;1262;1006223;-80
2023/06/11 03:16:51;;;;;;;18.50;15.40;;;;;;;-128.00;-1.00;-1.00;102473;1261;1046828;-81
2023/06/11 03:19:18;;;;;;;17.40;13.70;;;;;;;-128.00;-1.00;-1.00;102578;1265;1004672;-80
2023/06/11 03:21:44;;;;;;;18.70;13.40;;;;;;;-128.00;-1.00;-1.00;102599;1264;1003666;-79
2023/06/11 03:24:11;;;;;;;15.70;13.50;;;;;;;-128.00;-1.00;-1.00;102554;1261;1004263;-81
2023/06/11 03:26:37;;;;;;;18.10;14.00;;;;;;;-128.00;-1.00;-1.00;102545;1260;1004459;-79
2023/06/11 03:29:03;;;;;;;18.60;13.30;;;;;;;-128.00;-1.00;-1.00;102459;1259;1006635;-78
2023/06/11 03:31:30;;;;;;;16.50;13.80;;;;;;;-128.00;-1.00;-1.00;102613;1263;1005280;-81
2023/06/11 03:33:56;;;;;;;18.00;14.80;;;;;;;-128.00;-1.00;-1.00;102606;1260;1004264;-79
2023/06/11 03:36:23;;;;;;;15.50;13.90;;;;;;;-128.00;-1.00;-1.00;102507;1260;1003942;-81
2023/06/11 03:38:50;;;;;;;17.90;15.00;;;;;;;-128.00;-1.00;-1.00;102566;1260;1005088;-81
2023/06/11 03:41:17;;;;;;;15.40;13.20;;;;;;;-128.00;-1.00;-1.00;103560;1259;1005527;-79
2023/06/11 03:43:43;;;;;;;17.70;14.30;;;;;;;-128.00;-1.00;-1.00;105153;1260;1003300;-81
2023/06/11 03:46:10;;;;;;;17.20;12.80;;;;;;;-128.00;-1.00;-1.00;105189;1260;1005007;-79
2023/06/11 03:48:36;;;;;;;13.60;12.20;;;;;;;-128.00;-1.00;-1.00;105160;1259;1003882;-81
2023/06/11 03:51:02;;;;;;;16.80;13.60;;;;;;;-128.00;-1.00;-1.00;105173;1260;1003639;-81
2023/06/11 03:53:29;;;;;;;16.00;13.70;;;;;;;-128.00;-1.00;-1.00;105216;1259;1004828;-81
2023/06/11 03:55:56;;;;;;;13.50;12.00;;;;;;;-128.00;-1.00;-1.00;105192;1260;1003798;-81
2023/06/11 03:58:22;;;;;;;16.00;14.30;;;;;;;-128.00;-1.00;-1.00;105206;1259;1004946;-79
2023/06/11 04:00:48;;;;;;;14.30;12.10;;;;;;;-128.00;-1.00;-1.00;104162;1259;1004455;-81
2023/06/11 04:03:15;;;;;;;15.30;12.20;;;;;;;-128.00;-1.00;-1.00;102578;1260;1004112;-81
2023/06/11 04:05:42;;;;;;;14.40;12.80;;;;;;;-128.00;-1.00;-1.00;102560;1262;1005174;-79
2023/06/11 04:08:08;;;;;;;15.20;12.20;;;;;;;-128.00;-1.00;-1.00;102447;1263;1004000;-82
2023/06/11 04:10:35;;;;;;;13.60;11.60;;;;;;;-128.00;-1.00;-1.00;102584;1260;1004949;-78
2023/06/11 04:13:01;;;;;;;17.10;12.90;;;;;;;-128.00;-1.00;-1.00;102589;1260;1008076;-83
2023/06/11 04:15:28;;;;;;;14.00;11.00;;;;;;;-128.00;-1.00;-1.00;102553;1260;1004403;-79
2023/06/11 04:17:54;;;;;;;15.10;12.00;;;;;;;-128.00;-1.00;-1.00;102492;1261;1004663;-81
2023/06/11 04:20:21;;;;;;;14.60;11.70;;;;;;;-128.00;-1.00;-1.00;103184;1259;1005673;-79
2023/06/11 04:22:47;;;;;;;12.40;10.90;;;;;;;-128.00;-1.00;-1.00;104981;1260;1004030;-81
2023/06/11 04:25:13;;;;;;;14.00;10.80;;;;;;;-128.00;-1.00;-1.00;103036;1258;1004440;-81
2023/06/11 04:27:40;;;;;;;13.50;11.50;;;;;;;-128.00;-1.00;-1.00;105176;1259;1004916;-79
2023/06/11 04:30:07;;;;;;;14.70;12.00;;;;;;;-128.00;-1.00;-1.00;103267;1260;1004794;-79
2023/06/11 04:32:36;;;;;;;14.20;11.80;;;;;;;-128.00;-1.00;-1.00;102585;1261;1004843;-81
2023/06/11 04:35:03;;;;;;;13.40;11.10;;;;;;;-128.00;-1.00;-1.00;102583;1261;1058435;-81
2023/06/11 04:37:30;;;;;;;12.70;10.80;;;;;;;-128.00;-1.00;-1.00;102476;1264;1003975;-81
2023/06/11 04:40:09;;;;;;;12.30;11.00;;;;;;;-128.00;-1.00;-1.00;102561;1260;1004901;-79
2023/06/11 04:42:40;;;;;;;13.90;11.80;;;;;;;-128.00;-1.00;-1.00;102580;1262;1047282;-79
2023/06/11 04:45:09;;;;;;;13.70;11.90;;;;;;;-128.00;-1.00;-1.00;102440;1260;1061965;-81
2023/06/11 04:47:36;;;;;;;15.30;12.80;;;;;;;-128.00;-1.00;-1.00;102830;1263;1057063;-81
2023/06/11 04:50:04;;;;;;;14.70;11.70;;;;;;;-128.00;-1.00;-1.00;102435;1259;1004052;-79
2023/06/11 04:52:31;;;;;;;12.90;11.10;;;;;;;-128.00;-1.00;-1.00;102462;1261;1004419;-79
2023/06/11 04:54:59;;;;;;;11.00;9.90;;;;;;;-128.00;-1.00;-1.00;102451;1260;1005046;-79
2023/06/11 04:57:25;;;;;;;12.10;10.70;;;;;;;-128.00;-1.00;-1.00;102622;1263;1004727;-79
2023/06/11 04:59:52;;;;;;;14.60;11.50;;;;;;;-128.00;-1.00;-1.00;102484;1259;1004444;-81
2023/06/11 05:02:20;;;;;;;11.30;10.00;;;;;;;-128.00;-1.00;-1.00;102587;1259;1003669;-82
2023/06/11 05:04:49;;;;;;;13.00;10.20;;;;;;;-128.00;-1.00;-1.00;102608;1264;1005673;-80
2023/06/11 05:07:17;;;;;;;;;;;;;;;-128.00;-1.00;-1.00;102543;1264;1047992;-80
2023/06/11 05:09:44;;;;;;;12.60;9.20;;;;;;;-128.00;-1.00;-1.00;102577;1263;1004763;-81
2023/06/11 05:12:11;;;;;;;15.20;11.20;;;;;;;-128.00;-1.00;-1.00;102619;1263;1004530;-81
2023/06/11 05:14:37;;;;;;;11.80;10.10;;;;;;;-128.00;-1.00;-1.00;102531;1264;1004997;-81
2023/06/11 05:17:04;;;;;;;13.00;11.00;;;;;;;-128.00;-1.00;-1.00;102523;1260;1004142;-81
2023/06/11 05:19:30;;;;;;;12.50;10.40;;;;;;;-128.00;-1.00;-1.00;102594;1260;1004088;-81
2023/06/11 05:21:57;;;;;;;12.10;10.90;;;;;;;-128.00;-1.00;-1.00;102464;1259;1003686;-79
2023/06/11 05:24:28;;;;;;;16.00;10.40;;;;;;;-128.00;-1.00;-1.00;102622;1259;1004417;-82
2023/06/11 05:26:55;;;;;;;12.60;10.70;;;;;;;-128.00;-1.00;-1.00;102670;1260;1059182;-80
2023/06/11 05:29:23;;;;;;;13.00;10.50;;;;;;;-128.00;-1.00;-1.00;102448;1264;1004625;-79
2023/06/11 05:31:49;;;;;;;14.70;11.00;;;;;;;-128.00;-1.00;-1.00;102554;1259;1004481;-81
2023/06/11 05:34:16;;;;;;;11.40;10.30;;;;;;;-128.00;-1.00;-1.00;102594;1261;1003817;-80
2023/06/11 05:36:45;;;;;;;23.20;10.80;;;;;;;-128.00;-1.00;-1.00;102486;1264;1004425;-80
2023/06/11 05:39:12;;;;;;;12.50;10.40;;;;;;;-128.00;-1.00;-1.00;102630;1260;1059329;-79
2023/06/11 05:41:38;;;;;;;11.10;9.50;;;;;;;-128.00;-1.00;-1.00;102650;1263;1004685;-81
2023/06/11 05:44:05;;;;;;;10.90;9.70;;;;;;;-128.00;-1.00;-1.00;102552;1261;1003623;-81
2023/06/11 05:46:32;;;;;;;13.10;10.40;;;;;;;-128.00;-1.00;-1.00;102603;1260;1004841;-81
2023/06/11 05:48:59;;;;;;;13.60;10.40;;;;;;;-128.00;-1.00;-1.00;102587;1264;1004998;-81
2023/06/11 05:51:25;;;;;;;13.10;10.30;;;;;;;-128.00;-1.00;-1.00;102592;1260;1005320;-81
2023/06/11 05:53:52;;;;;;;14.20;11.10;;;;;;;-128.00;-1.00;-1.00;102526;1264;1004187;-80
2023/06/11 05:56:18;;;;;;;15.20;11.60;;;;;;;-128.00;-1.00;-1.00;102593;1260;1004255;-81
2023/06/11 05:58:44;;;;;;;14.00;10.70;;;;;;;-128.00;-1.00;-1.00;102574;1260;1005584;-80
2023/06/11 06:01:12;;;;;;;12.30;11.10;;;;;;;-128.00;-1.00;-1.00;102564;1259;1004248;-81
2023/06/11 06:03:38;;;;;;;20.80;11.10;;;;;;;-128.00;-1.00;-1.00;102600;1260;1003973;-81
2023/06/11 06:06:05;;;;;;;13.20;11.80;;;;;;;-128.00;-1.00;-1.00;102565;1259;1004116;-81
2023/06/11 06:08:31;;;;;;;17.60;11.50;;;;;;;-128.00;-1.00;-1.00;102403;1264;1003895;-82
2023/06/11 06:10:57;;;;;;;14.70;11.20;;;;;;;-128.00;-1.00;-1.00;102550;1263;1004493;-81
2023/06/11 06:13:24;;;;;;;13.50;11.50;;;;;;;-128.00;-1.00;-1.00;102568;1261;1005281;-81
2023/06/11 06:15:52;;;;;;;14.50;11.30;;;;;;;-128.00;-1.00;-1.00;102360;1259;1004651;-80
2023/06/11 06:18:19;;;;;;;14.30;10.90;;;;;;;-128.00;-1.00;-1.00;102517;1259;1005146;-80
2023/06/11 06:20:46;;;;;;;14.40;12.70;;;;;;;-128.00;-1.00;-1.00;102598;1262;1004526;-79
2023/06/11 06:23:12;;;;;;;15.00;11.90;;;;;;;-128.00;-1.00;-1.00;102534;1260;1005152;-79
2023/06/11 06:25:41;;;;;;;13.50;11.80;;;;;;;-128.00;-1.00;-1.00;102578;1263;1005376;-81
2023/06/11 06:28:07;;;;;;;17.00;12.80;;;;;;;-128.00;-1.00;-1.00;102551;1263;1006389;-80
2023/06/11 06:30:34;;;;;;;17.80;12.50;;;;;;;-128.00;-1.00;-1.00;102562;1261;1005462;-81
2023/06/11 06:33:00;;;;;;;16.40;13.30;;;;;;;-128.00;-1.00;-1.00;102126;1264;1004547;-79
2023/06/11 06:35:30;;;;;;;16.40;12.90;;;;;;;-128.00;-1.00;-1.00;102385;1260;1004951;-81
2023/06/11 06:37:58;;;;;;;16.50;12.80;;;;;;;-128.00;-1.00;-1.00;102539;1261;1058635;-79
2023/06/11 06:40:24;;;;;;;20.90;13.90;;;;;;;-128.00;-1.00;-1.00;102556;1260;1004198;-81
2023/06/11 06:42:51;;;;;;;15.50;13.10;;;;;;;-128.00;-1.00;-1.00;102483;1259;1004600;-79
2023/06/11 06:45:17;;;;;;;17.50;14.20;;;;;;;-128.00;-1.00;-1.00;102375;1259;1004034;-81
2023/06/11 06:47:43;;;;;;;14.90;13.30;;;;;;;-128.00;-1.00;-1.00;102570;1259;1004940;-79
2023/06/11 06:50:10;;;;;;;16.60;13.60;;;;;;;-128.00;-1.00;-1.00;102578;1259;1003685;-79
2023/06/11 06:52:36;;;;;;;16.10;13.00;;;;;;;-128.00;-1.00;-1.00;102557;1259;1004281;-81
2023/06/11 06:55:03;;;;;;;15.70;12.70;;;;;;;-128.00;-1.00;-1.00;102531;1263;1004736;-79
2023/06/11 06:57:30;;;;;;;13.20;11.80;;;;;;;-128.00;-1.00;-1.00;102552;1260;1003893;-79
2023/06/11 06:59:56;;;;;;;13.30;11.70;;;;;;;-128.00;-1.00;-1.00;102584;1260;1004525;-79
2023/06/11 07:02:23;;;;;;;14.10;12.40;;;;;;;-128.00;-1.00;-1.00;102610;1259;1003957;-82
2023/06/11 07:04:51;;;;;;;13.30;11.40;;;;;;;-128.00;-1.00;-1.00;102523;1259;1004389;-79
2023/06/11 07:07:17;;;;;;;14.50;10.50;;;;;;;-128.00;-1.00;-1.00;102477;1259;1004886;-81
2023/06/11 07:09:44;;;;;;;264.00;187.00;;;;;;;-128.00;-1.00;-1.00;102509;1260;1004125;-79
2023/06/11 07:12:10;;;;;;;67.70;51.80;;;;;;;-128.00;-1.00;-1.00;102530;1263;1004460;-79
2023/06/11 07:14:37;;;;;;;20.80;17.50;;;;;;;-128.00;-1.00;-1.00;102587;1259;1005074;-81
2023/06/11 07:17:03;;;;;;;15.20;12.00;;;;;;;-128.00;-1.00;-1.00;102405;1264;1004285;-79
2023/06/11 07:19:29;;;;;;;1052.40;723.00;;;;;;;-128.00;-1.00;-1.00;102398;1260;1005784;-81
2023/06/11 07:21:56;;;;;;;99.10;70.10;;;;;;;-128.00;-1.00;-1.00;102091;1263;1007282;-79
2023/06/11 07:24:23;;;;;;;100.20;64.30;;;;;;;-128.00;-1.00;-1.00;102591;1259;1004159;-79
2023/06/11 07:26:49;;;;;;;16.10;11.60;;;;;;;-128.00;-1.00;-1.00;102604;1263;1004211;-79
2023/06/11 07:29:15;;;;;;;487.80;392.60;;;;;;;-128.00;-1.00;-1.00;102564;1261;1004793;-81
2023/06/11 07:31:42;;;;;;;25.50;21.90;;;;;;;-128.00;-1.00;-1.00;102466;1263;1004581;-81
2023/06/11 07:34:08;;;;;;;17.80;14.40;;;;;;;-128.00;-1.00;-1.00;102703;1262;1004173;-81
2023/06/11 07:36:35;;;;;;;13.00;9.60;;;;;;;-128.00;-1.00;-1.00;102674;1259;1005638;-79
2023/06/11 07:39:01;;;;;;;12.40;9.60;;;;;;;-128.00;-1.00;-1.00;102700;1259;1006872;-81
2023/06/11 07:41:28;;;;;;;334.70;302.20;;;;;;;-128.00;-1.00;-1.00;102588;1259;1004206;-79
2023/06/11 07:43:54;;;;;;;19.50;16.80;;;;;;;-128.00;-1.00;-1.00;102676;1260;1005601;-81
2023/06/11 07:46:21;;;;;;;25.90;18.50;;;;;;;-128.00;-1.00;-1.00;102704;1262;1005899;-79
2023/06/11 07:48:48;;;;;;;165.00;104.80;;;;;;;-128.00;-1.00;-1.00;102619;1259;1058173;-80
2023/06/11 07:51:14;;;;;;;64.10;42.60;;;;;;;-128.00;-1.00;-1.00;102551;1263;1004768;-79
2023/06/11 07:53:41;;;;;;;21.50;16.20;;;;;;;-128.00;-1.00;-1.00;102573;1259;1006504;-79
2023/06/11 07:56:08;;;;;;;20.00;17.40;;;;;;;-128.00;-1.00;-1.00;102556;1259;1004512;-81
2023/06/11 07:58:36;;;;;;;33.60;26.50;;;;;;;-128.00;-1.00;-1.00;102618;1259;1005333;-81
2023/06/11 08:01:02;;;;;;;114.10;65.80;;;;;;;-128.00;-1.00;-1.00;102577;1259;1004969;-81
2023/06/11 08:03:30;;;;;;;12.60;9.90;;;;;;;-128.00;-1.00;-1.00;102599;1259;1004543;-79
2023/06/11 08:05:56;;;;;;;10.10;9.10;;;;;;;-128.00;-1.00;-1.00;102556;1259;1005023;-79
2023/06/11 08:08:23;;;;;;;13.90;12.50;;;;;;;-128.00;-1.00;-1.00;102564;1259;1004015;-79
2023/06/11 08:10:50;;;;;;;9.70;8.40;;;;;;;-128.00;-1.00;-1.00;102485;1259;1005251;-79
2023/06/11 08:13:17;;;;;;;8.70;7.80;;;;;;;-128.00;-1.00;-1.00;102592;1259;1005405;-81
2023/06/11 08:15:44;;;;;;;12.80;9.20;;;;;;;-128.00;-1.00;-1.00;102502;1259;1004640;-81
2023/06/11 08:18:10;;;;;;;15.40;12.60;;;;;;;-128.00;-1.00;-1.00;102594;1259;1004129;-79
2023/06/11 08:20:37;;;;;;;15.70;13.20;;;;;;;-128.00;-1.00;-1.00;102474;1263;1004937;-79
2023/06/11 08:23:03;;;;;;;11.20;10.00;;;;;;;-128.00;-1.00;-1.00;102602;1259;1005428;-81
2023/06/11 08:25:31;;;;;;;27.50;21.90;;;;;;;-128.00;-1.00;-1.00;102656;1259;1005050;-81
2023/06/11 08:27:58;;;;;;;12.70;9.80;;;;;;;-128.00;-1.00;-1.00;102576;1259;1003548;-81
2023/06/11 08:30:24;;;;;;;11.20;9.10;;;;;;;-128.00;-1.00;-1.00;102557;1260;1003976;-79
2023/06/11 08:32:50;;;;;;;13.20;10.40;;;;;;;-128.00;-1.00;-1.00;102615;1259;1004579;-81
2023/06/11 08:35:17;;;;;;;14.70;10.00;;;;;;;-128.00;-1.00;-1.00;102614;1261;1004941;-80
2023/06/11 08:37:43;;;;;;;37.50;24.30;;;;;;;-128.00;-1.00;-1.00;102545;1259;1003952;-79
2023/06/11 08:40:10;;;;;;;15.40;12.10;;;;;;;-128.00;-1.00;-1.00;103094;1259;1004735;-79
2023/06/11 08:42:37;;;;;;;30.70;20.60;;;;;;;-128.00;-1.00;-1.00;102460;1260;1004857;-79
2023/06/11 08:45:03;;;;;;;14.20;10.50;;;;;;;-128.00;-1.00;-1.00;102596;1259;1004712;-81
2023/06/11 08:47:30;;;;;;;10.50;9.40;;;;;;;-128.00;-1.00;-1.00;102607;1259;1005132;-81
2023/06/11 08:49:58;;;;;;;13.00;9.20;;;;;;;-128.00;-1.00;-1.00;102616;1259;1004574;-80
2023/06/11 08:52:26;;;;;;;24.00;10.10;;;;;;;-128.00;-1.00;-1.00;102682;1259;1004421;-79
2023/06/11 08:54:52;;;;;;;10.30;9.00;;;;;;;-128.00;-1.00;-1.00;102549;1263;1003816;-81
2023/06/11 08:57:19;;;;;;;12.60;10.80;;;;;;;-128.00;-1.00;-1.00;102551;1259;1003698;-80
2023/06/11 08:59:45;;;;;;;13.70;10.60;;;;;;;-128.00;-1.00;-1.00;102613;1259;1004597;-81
2023/06/11 09:02:12;;;;;;;12.90;8.80;;;;;;;-128.00;-1.00;-1.00;102596;1263;1004631;-79
2023/06/11 09:04:41;;;;;;;9.90;8.40;;;;;;;-128.00;-1.00;-1.00;102493;1260;1004784;-80
2023/06/11 09:07:08;;;;;;;13.00;8.50;;;;;;;-128.00;-1.00;-1.00;102400;1259;1049133;-81
2023/06/11 09:09:35;;;;;;;8.20;6.80;;;;;;;-128.00;-1.00;-1.00;102636;1259;1005266;-79
2023/06/11 09:12:07;;;;;;;9.30;7.50;;;;;;;-128.00;-1.00;-1.00;102585;1259;1004087;-80
2023/06/11 09:14:34;;;;;;;8.60;6.90;;;;;;;-128.00;-1.00;-1.00;103031;1259;1059881;-82
2023/06/11 09:17:00;;;;;;;11.70;7.80;;;;;;;-128.00;-1.00;-1.00;102112;1261;1006683;-78
2023/06/11 09:19:27;;;;;;;8.90;7.50;;;;;;;-128.00;-1.00;-1.00;102615;1263;1004609;-78
2023/06/11 09:21:55;;;;;;;13.90;8.80;;;;;;;-128.00;-1.00;-1.00;102617;1259;1004556;-79
2023/06/11 09:24:22;;;;;;;11.60;8.80;;;;;;;-128.00;-1.00;-1.00;102586;1259;1003993;-79
2023/06/11 09:26:53;;;;;;;8.70;7.70;;;;;;;-128.00;-1.00;-1.00;102679;1259;1005037;-78
2023/06/11 09:29:21;;;;;;;7.30;6.20;;;;;;;-128.00;-1.00;-1.00;102601;1259;1061992;-79
2023/06/11 09:31:47;;;;;;;10.10;6.70;;;;;;;-128.00;-1.00;-1.00;102770;1259;1005983;-78
2023/06/11 09:34:21;;;;;;;8.00;5.90;;;;;;;-128.00;-1.00;-1.00;102495;1259;1004448;-80
2023/06/11 09:36:48;;;;;;;13.50;5.70;;;;;;;-128.00;-1.00;-1.00;103024;1260;1061329;-78
2023/06/11 09:39:16;;;;;;;6.00;5.40;;;;;;;-128.00;-1.00;-1.00;102632;1260;1005241;-79
2023/06/11 09:41:47;;;;;;;7.10;6.00;;;;;;;-128.00;-1.00;-1.00;103078;1259;1003907;-81
2023/06/11 09:44:15;;;;;;;6.00;5.40;;;;;;;-128.00;-1.00;-1.00;102689;1259;1047260;-79
2023/06/11 09:46:42;;;;;;;6.40;5.30;;;;;;;-128.00;-1.00;-1.00;102531;1259;1004235;-81
2023/06/11 09:49:08;;;;;;;9.10;6.90;;;;;;;-128.00;-1.00;-1.00;102604;1259;1003498;-81
2023/06/11 09:51:38;;;;;;;7.80;6.40;;;;;;;-128.00;-1.00;-1.00;102580;1259;1004316;-80
2023/06/11 09:54:09;;;;;;;14.10;7.20;;;;;;;-128.00;-1.00;-1.00;102107;1259;1061602;-81
2023/06/11 09:56:35;;;;;;;9.50;5.80;;;;;;;-128.00;-1.00;-1.00;102090;1259;1046523;-81
2023/06/11 09:59:02;;;;;;;9.50;7.90;;;;;;;-128.00;-1.00;-1.00;102129;1263;1004958;-80
2023/06/11 10:01:29;;;;;;;9.10;6.20;;;;;;;-128.00;-1.00;-1.00;102101;1259;1004639;-80
2023/06/11 10:03:59;;;;;;;7.20;5.70;;;;;;;-128.00;-1.00;-1.00;102056;1259;1004072;-79
2023/06/11 10:06:32;;;;;;;6.40;5.50;;;;;;;-128.00;-1.00;-1.00;102090;1259;1059521;-79
2023/06/11 10:09:00;;;;;;;12.30;7.00;;;;;;;-128.00;-1.00;-1.00;102550;1259;1046702;-81
2023/06/11 10:11:28;;;;;;;;;;;;;;;-128.00;-1.00;-1.00;102734;1259;1047187;-81
2023/06/11 10:13:59;;;;;;;7.70;6.30;;;;;;;-128.00;-1.00;-1.00;102487;1259;1003963;-79
2023/06/11 10:16:27;;;;;;;11.50;9.50;;;;;;;-128.00;-1.00;-1.00;102549;1262;1057226;-79
2023/06/11 10:19:07;;;;;;;7.10;6.10;;;;;;;-128.00;-1.00;-1.00;102556;1260;1003673;-81
2023/06/11 10:21:36;;;;;;;12.80;6.50;;;;;;;-128.00;-1.00;-1.00;102541;1259;1049101;-79
2023/06/11 10:24:03;;;;;;;7.10;5.60;;;;;;;-128.00;-1.00;-1.00;102580;1259;1050889;-81
2023/06/11 10:26:36;;;;;;;7.80;5.90;;;;;;;-128.00;-1.00;-1.00;103704;1259;1004737;-79
2023/06/11 10:29:09;;;;;;;7.70;5.40;;;;;;;-128.00;-1.00;-1.00;103011;1263;1057962;-79
2023/06/11 10:31:39;;;;;;;7.20;5.60;;;;;;;-128.00;-1.00;-1.00;102465;1263;1059623;-81
2023/06/11 10:34:06;;;;;;;7.90;4.60;;;;;;;-128.00;-1.00;-1.00;102572;1259;1046305;-79
2023/06/11 10:36:35;;;;;;;7.00;5.00;;;;;;;-128.00;-1.00;-1.00;102490;1259;1003938;-81
2023/06/11 10:39:22;;;;;;;7.00;5.50;;;;;;;-128.00;-1.00;-1.00;102581;1259;1062566;-81
2023/06/11 10:42:01;;;;;;;7.60;4.30;;;;;;;-128.00;-1.00;-1.00;102561;1259;1058763;-79
2023/06/11 10:44:31;;;;;;;7.70;5.40;;;;;;;-128.00;-1.00;-1.00;102572;1259;1059118;-81
2023/06/11 10:47:00;;;;;;;5.80;4.50;;;;;;;-128.00;-1.00;-1.00;102567;1260;1046077;-79
2023/06/11 10:49:26;;;;;;;7.20;4.70;;;;;;;-128.00;-1.00;-1.00;102579;1259;1047293;-79
2023/06/11 10:51:53;;;;;;;7.00;4.90;;;;;;;-128.00;-1.00;-1.00;102567;1259;1005069;-79
2023/06/11 10:54:28;;;;;;;7.50;4.30;;;;;;;-128.00;-1.00;-1.00;102502;1260;1004882;-82
2023/06/11 10:56:54;;;;;;;6.60;4.40;;;;;;;-128.00;-1.00;-1.00;102566;1259;1061158;-82
2023/06/11 10:59:21;;;;;;;4.10;3.70;;;;;;;-128.00;-1.00;-1.00;102511;1264;1005326;-80
2023/06/11 11:01:47;;;;;;;4.60;3.70;;;;;;;-128.00;-1.00;-1.00;102586;1259;1005115;-82
2023/06/11 11:04:13;;;;;;;4.70;3.60;;;;;;;-128.00;-1.00;-1.00;102448;1259;1004827;-81
2023/06/11 11:06:43;;;;;;;4.70;3.30;;;;;;;-128.00;-1.00;-1.00;102629;1261;1005301;-79
2023/06/11 11:09:10;;;;;;;5.60;4.50;;;;;;;-128.00;-1.00;-1.00;102593;1259;1060309;-81